Flight Track Log - Related Links

Times and Time Zones

All times are in EDT time to prevent confusion due to time zone crossing. See the N73CK flight status page for this flight to view local times or setup timezone preferences in your user account.

Time Position Orientation Groundspeed Altitude Reporting Facility
EDT Latitude Longitude Course Direction KTS MPH feet Rate Location/Type
12:35PM 32.9833 -96.8500 23° Northeast 187 215 1,300  Level Dallas / Fort Worth TRACON
12:36PM 33.0500 -96.8167 23° Northeast 244 281 3,600 1,080 Climbing Dallas / Fort Worth TRACON
12:37PM 33.0333 -96.7167 101° East 268 308 4,000 1,685 Climbing Dallas / Fort Worth TRACON
12:39PM 33.0269 -96.6106 94° East 309 356 7,700 2,443 Climbing Fort Worth Center
12:40PM 33.0078 -96.5242 105° East 309 356 9,700 2,400 Climbing Fort Worth Center
12:41PM 32.9944 -96.4153 98° East 309 356 12,500 2,050 Climbing Fort Worth Center
12:42PM 33.0019 -96.3236 84° East 299 344 13,800 600 Climbing Fort Worth Center
12:43PM 33.0156 -96.2119 82° East 305 351 13,700 -600 Descending Fort Worth Center
12:44PM 33.0314 -96.1300 77° East 317 365 12,600 -1,100 Descending Fort Worth Center
12:45PM 33.1081 -96.0742 31° Northeast 266 306 11,500 -700 Descending Fort Worth Center
12:46PM 33.1369 -96.0342 49° Northeast 240 276 11,200 -750 Descending Fort Worth Center
12:47PM 33.1403 -95.9719 86° East 172 198 10,000 -950 Descending Fort Worth Center
12:48PM 33.1503 -95.9247 76° East 167 192 9,300 -850 Descending Fort Worth Center
12:49PM 33.1642 -95.8750 72° East 167 192 8,300 -750 Descending Fort Worth Center
12:50PM 33.1928 -95.8147 60° Northeast 167 192 7,800 550 Descending Fort Worth Center
12:51PM 33.2183 -95.8517 310° West 103 119 9,400 1,850 Climbing Fort Worth Center
12:52PM 33.1783 -95.8375 163° South 68 78 11,500 1,600 Climbing Fort Worth Center
12:53PM 33.1900 -95.7750 77° East 95 109 12,600 50 Climbing Fort Worth Center
12:54PM 33.2250 -95.7372 42° Northeast 110 127 11,600 -900 Descending Fort Worth Center
12:55PM 33.2708 -95.7239 14° North 135 155 10,800 -1,050 Descending Fort Worth Center
12:56PM 33.3106 -95.7356 346° North 160 184 9,500 -450 Descending Fort Worth Center
12:57PM 33.3506 -95.7622 331° Northwest 161 185 9,900 1,400 Climbing Fort Worth Center
12:58PM 33.3114 -95.7978 217° Southwest 118 136 12,300 1,100 Climbing Fort Worth Center
12:59PM 33.2933 -95.8553 249° West 160 184 12,100 -700 Descending Fort Worth Center
01:00PM 33.2794 -95.8953 247° West 164 189 10,900 -1,350 Descending Fort Worth Center
01:01PM 33.2631 -95.9453 249° West 155 178 9,400 -750 Descending Fort Worth Center
01:02PM 33.2636 -95.9875 271° West 150 173 9,400 1,000 Level Fort Worth Center
01:03PM 33.2589 -95.9428 97° East 51 59 11,400 1,400 Climbing Fort Worth Center
01:04PM 33.2436 -95.8733 105° East 112 129 12,200 -600 Climbing Fort Worth Center
01:05PM 33.2408 -95.8314 95° East 119 137 10,200 -1,600 Descending Fort Worth Center
01:06PM 33.2486 -95.7764 80° East 125 144 9,000 -1,000 Descending Fort Worth Center
01:07PM 33.2689 -95.7364 59° Northeast 125 144 8,200 -550 Descending Fort Worth Center
01:08PM 33.2892 -95.6789 67° East 150 173 7,900 600 Descending Fort Worth Center
01:09PM 33.3289 -95.6831 355° North 139 160 9,400 2,100 Climbing Fort Worth Center
01:10PM 33.2831 -95.7014 198° South 67 77 12,100 1,600 Climbing Fort Worth Center
01:11PM 33.2317 -95.7544 221° Southwest 213 245 12,600 200 Climbing Fort Worth Center
01:12PM 33.2181 -95.8342 258° West 261 300 12,500 -450 Descending Fort Worth Center
01:13PM 33.2339 -95.9308 281° West 265 305 11,700 -1,000 Descending Fort Worth Center
01:14PM 33.2033 -96.0108 245° Southwest 283 326 10,500 -550 Descending Fort Worth Center
01:15PM 33.1731 -96.1081 250° West 295 339 10,600 -500 Climbing Fort Worth Center
01:16PM 33.1508 -96.1853 251° West 295 339 9,500 -1,800 Descending Fort Worth Center
01:17PM 33.1228 -96.2822 251° West 288 331 7,000 -1,650 Descending Fort Worth Center
01:18PM 33.1708 -96.3164 329° Northwest 182 209 6,200 -550 Descending Fort Worth Center
01:19PM 33.2089 -96.3633 314° West 199 229 5,900 -750 Descending Fort Worth Center
01:20PM 33.1531 -96.4208 221° Southwest 184 212 4,700 -950 Descending Fort Worth Center
01:21PM 33.0950 -96.4811 221° Southwest 245 282 4,000 -350 Descending Fort Worth Center
01:22PM 33.0433 -96.5386 223° Southwest 266 306 4,000  Level Fort Worth Center
01:23PM 32.9936 -96.5911 222° Southwest 261 300 4,000 -450 Level Fort Worth Center
01:24PM 32.9519 -96.6386 224° Southwest 241 277 3,100 -650 Descending Fort Worth Center
01:25PM 32.9086 -96.6883 224° Southwest 210 242 2,700 -450 Descending Fort Worth Center
01:26PM 32.8775 -96.7258 225° Southwest 183 211 2,200 -300 Descending Fort Worth Center
01:27PM 32.8839 -96.7778 278° West 144 166 2,100 -250 Descending Fort Worth Center
01:28PM 32.9092 -96.8097 313° West 144 166 1,700 -550 Descending Fort Worth Center
01:29PM 32.9447 -96.8267 338° Northwest 133 153 1,000 -400 Descending Fort Worth Center
01:30PM 32.9719 -96.8464 329° Northwest 133 153 900 -100 Descending Fort Worth Center

Login

Don't have an account? Register now (free) for customized features, flight alerts, and more!